sensor_id;sensor_type;location;lat;lon;timestamp;P1;P2;P0
61592;PMS5003;70568;51.378;-1.342;2023-06-19T00:02:04;16;15;
61592;PMS5003;70568;51.378;-1.342;2023-06-19T00:04:31;19;19;
61592;PMS5003;70568;51.378;-1.342;2023-06-19T00:06:59;23;23;
61592;PMS5003;70568;51.378;-1.342;2023-06-19T00:09:26;18;18;
61592;PMS5003;70568;51.378;-1.342;2023-06-19T00:11:53;20;19;
61592;PMS5003;70568;51.378;-1.342;2023-06-19T00:14:21;15;14;
61592;PMS5003;70568;51.378;-1.342;2023-06-19T00:16:48;16;15;
61592;PMS5003;70568;51.378;-1.342;2023-06-19T00:19:15;18;17;
61592;PMS5003;70568;51.378;-1.342;2023-06-19T00:21:42;19;19;
61592;PMS5003;70568;51.378;-1.342;2023-06-19T00:24:09;16;16;
61592;PMS5003;70568;51.378;-1.342;2023-06-19T00:26:36;19;19;
61592;PMS5003;70568;51.378;-1.342;2023-06-19T00:29:03;18;18;
61592;PMS5003;70568;51.378;-1.342;2023-06-19T00:31:30;19;19;
61592;PMS5003;70568;51.378;-1.342;2023-06-19T00:33:57;24;23;
61592;PMS5003;70568;51.378;-1.342;2023-06-19T00:36:23;16;16;
61592;PMS5003;70568;51.378;-1.342;2023-06-19T00:38:51;19;18;
61592;PMS5003;70568;51.378;-1.342;2023-06-19T00:41:18;22;22;
61592;PMS5003;70568;51.378;-1.342;2023-06-19T00:43:46;19;17;
61592;PMS5003;70568;51.378;-1.342;2023-06-19T00:46:13;17;16;
61592;PMS5003;70568;51.378;-1.342;2023-06-19T00:48:40;15;15;
61592;PMS5003;70568;51.378;-1.342;2023-06-19T00:51:07;20;19;
61592;PMS5003;70568;51.378;-1.342;2023-06-19T00:53:34;19;19;
61592;PMS5003;70568;51.378;-1.342;2023-06-19T00:56:01;20;18;
61592;PMS5003;70568;51.378;-1.342;2023-06-19T00:58:29;18;18;
61592;PMS5003;70568;51.378;-1.342;2023-06-19T01:00:57;24;23;
61592;PMS5003;70568;51.378;-1.342;2023-06-19T01:03:24;21;17;
61592;PMS5003;70568;51.378;-1.342;2023-06-19T01:05:50;18;17;
61592;PMS5003;70568;51.378;-1.342;2023-06-19T01:08:36;22;21;
61592;PMS5003;70568;51.378;-1.342;2023-06-19T01:11:09;19;19;
61592;PMS5003;70568;51.378;-1.342;2023-06-19T01:13:39;17;17;
61592;PMS5003;70568;51.378;-1.342;2023-06-19T01:16:11;18;18;
61592;PMS5003;70568;51.378;-1.342;2023-06-19T01:18:39;20;18;
61592;PMS5003;70568;51.378;-1.342;2023-06-19T01:21:10;20;19;
61592;PMS5003;70568;51.378;-1.342;2023-06-19T01:23:38;18;18;
61592;PMS5003;70568;51.378;-1.342;2023-06-19T01:26:05;23;23;
61592;PMS5003;70568;51.378;-1.342;2023-06-19T01:28:31;20;20;
61592;PMS5003;70568;51.378;-1.342;2023-06-19T01:30:58;17;17;
61592;PMS5003;70568;51.378;-1.342;2023-06-19T01:33:28;16;16;
61592;PMS5003;70568;51.378;-1.342;2023-06-19T01:35:57;19;19;
61592;PMS5003;70568;51.378;-1.342;2023-06-19T01:38:25;20;19;
61592;PMS5003;70568;51.378;-1.342;2023-06-19T01:40:53;23;22;
61592;PMS5003;70568;51.378;-1.342;2023-06-19T01:43:22;16;16;
61592;PMS5003;70568;51.378;-1.342;2023-06-19T01:45:50;17;17;
61592;PMS5003;70568;51.378;-1.342;2023-06-19T01:48:17;20;18;
61592;PMS5003;70568;51.378;-1.342;2023-06-19T01:50:45;17;17;
61592;PMS5003;70568;51.378;-1.342;2023-06-19T01:53:12;18;17;
61592;PMS5003;70568;51.378;-1.342;2023-06-19T01:55:39;21;21;
61592;PMS5003;70568;51.378;-1.342;2023-06-19T01:58:05;18;18;
61592;PMS5003;70568;51.378;-1.342;2023-06-19T02:00:32;17;16;
61592;PMS5003;70568;51.378;-1.342;2023-06-19T02:02:59;23;22;
61592;PMS5003;70568;51.378;-1.342;2023-06-19T02:05:26;18;18;
61592;PMS5003;70568;51.378;-1.342;2023-06-19T02:07:52;19;18;
61592;PMS5003;70568;51.378;-1.342;2023-06-19T02:10:19;19;19;
61592;PMS5003;70568;51.378;-1.342;2023-06-19T02:12:47;20;18;
61592;PMS5003;70568;51.378;-1.342;2023-06-19T02:15:14;20;19;
61592;PMS5003;70568;51.378;-1.342;2023-06-19T02:17:41;19;18;
61592;PMS5003;70568;51.378;-1.342;2023-06-19T02:20:10;21;21;
61592;PMS5003;70568;51.378;-1.342;2023-06-19T02:22:38;20;20;
61592;PMS5003;70568;51.378;-1.342;2023-06-19T02:25:06;18;18;
61592;PMS5003;70568;51.378;-1.342;2023-06-19T02:27:33;17;16;
61592;PMS5003;70568;51.378;-1.342;2023-06-19T02:30:00;18;17;
61592;PMS5003;70568;51.378;-1.342;2023-06-19T02:32:27;23;22;
61592;PMS5003;70568;51.378;-1.342;2023-06-19T02:34:54;20;20;
61592;PMS5003;70568;51.378;-1.342;2023-06-19T02:37:22;23;22;
61592;PMS5003;70568;51.378;-1.342;2023-06-19T02:39:48;21;20;
61592;PMS5003;70568;51.378;-1.342;2023-06-19T02:42:15;16;14;
61592;PMS5003;70568;51.378;-1.342;2023-06-19T02:44:41;17;17;
61592;PMS5003;70568;51.378;-1.342;2023-06-19T02:47:09;17;17;
61592;PMS5003;70568;51.378;-1.342;2023-06-19T02:49:35;21;21;
61592;PMS5003;70568;51.378;-1.342;2023-06-19T02:52:02;18;18;
61592;PMS5003;70568;51.378;-1.342;2023-06-19T02:54:30;24;24;
61592;PMS5003;70568;51.378;-1.342;2023-06-19T02:56:57;22;21;
61592;PMS5003;70568;51.378;-1.342;2023-06-19T02:59:24;19;19;
61592;PMS5003;70568;51.378;-1.342;2023-06-19T03:01:51;20;19;
61592;PMS5003;70568;51.378;-1.342;2023-06-19T03:04:17;19;18;
61592;PMS5003;70568;51.378;-1.342;2023-06-19T03:06:44;17;17;
61592;PMS5003;70568;51.378;-1.342;2023-06-19T03:09:11;20;19;
61592;PMS5003;70568;51.378;-1.342;2023-06-19T03:11:38;18;18;
61592;PMS5003;70568;51.378;-1.342;2023-06-19T03:14:05;16;16;
61592;PMS5003;70568;51.378;-1.342;2023-06-19T03:16:33;21;21;
61592;PMS5003;70568;51.378;-1.342;2023-06-19T03:19:00;19;18;
61592;PMS5003;70568;51.378;-1.342;2023-06-19T03:21:27;17;17;
61592;PMS5003;70568;51.378;-1.342;2023-06-19T03:23:54;19;19;
61592;PMS5003;70568;51.378;-1.342;2023-06-19T03:26:21;19;18;
61592;PMS5003;70568;51.378;-1.342;2023-06-19T03:28:48;18;18;
61592;PMS5003;70568;51.378;-1.342;2023-06-19T03:31:15;18;17;
61592;PMS5003;70568;51.378;-1.342;2023-06-19T03:33:41;17;16;
61592;PMS5003;70568;51.378;-1.342;2023-06-19T03:36:08;19;19;
61592;PMS5003;70568;51.378;-1.342;2023-06-19T03:38:35;24;23;
61592;PMS5003;70568;51.378;-1.342;2023-06-19T03:41:02;22;20;
61592;PMS5003;70568;51.378;-1.342;2023-06-19T03:43:28;19;19;
61592;PMS5003;70568;51.378;-1.342;2023-06-19T03:45:55;22;22;
61592;PMS5003;70568;51.378;-1.342;2023-06-19T03:48:22;17;17;
61592;PMS5003;70568;51.378;-1.342;2023-06-19T03:50:49;26;24;
61592;PMS5003;70568;51.378;-1.342;2023-06-19T03:53:15;18;18;
61592;PMS5003;70568;51.378;-1.342;2023-06-19T03:55:42;24;22;
61592;PMS5003;70568;51.378;-1.342;2023-06-19T03:58:09;23;22;
61592;PMS5003;70568;51.378;-1.342;2023-06-19T04:00:36;25;22;
61592;PMS5003;70568;51.378;-1.342;2023-06-19T04:03:02;25;25;
61592;PMS5003;70568;51.378;-1.342;2023-06-19T04:05:29;22;21;
61592;PMS5003;70568;51.378;-1.342;2023-06-19T04:07:56;26;24;
61592;PMS5003;70568;51.378;-1.342;2023-06-19T04:10:23;23;22;
61592;PMS5003;70568;51.378;-1.342;2023-06-19T04:12:49;21;20;
61592;PMS5003;70568;51.378;-1.342;2023-06-19T04:15:16;27;25;
61592;PMS5003;70568;51.378;-1.342;2023-06-19T04:17:43;22;22;
61592;PMS5003;70568;51.378;-1.342;2023-06-19T04:20:10;25;24;
61592;PMS5003;70568;51.378;-1.342;2023-06-19T04:22:38;21;19;
61592;PMS5003;70568;51.378;-1.342;2023-06-19T04:25:05;22;22;
61592;PMS5003;70568;51.378;-1.342;2023-06-19T04:27:33;26;25;
61592;PMS5003;70568;51.378;-1.342;2023-06-19T04:30:00;20;20;
61592;PMS5003;70568;51.378;-1.342;2023-06-19T04:32:28;24;24;
61592;PMS5003;70568;51.378;-1.342;2023-06-19T04:34:56;23;23;
61592;PMS5003;70568;51.378;-1.342;2023-06-19T04:37:23;22;21;
61592;PMS5003;70568;51.378;-1.342;2023-06-19T04:39:50;24;24;
61592;PMS5003;70568;51.378;-1.342;2023-06-19T04:42:17;22;21;
61592;PMS5003;70568;51.378;-1.342;2023-06-19T04:44:44;24;24;
61592;PMS5003;70568;51.378;-1.342;2023-06-19T04:47:11;24;24;
61592;PMS5003;70568;51.378;-1.342;2023-06-19T04:49:38;24;24;
61592;PMS5003;70568;51.378;-1.342;2023-06-19T04:52:05;23;23;
61592;PMS5003;70568;51.378;-1.342;2023-06-19T04:54:33;24;23;
61592;PMS5003;70568;51.378;-1.342;2023-06-19T04:56:59;27;26;
61592;PMS5003;70568;51.378;-1.342;2023-06-19T04:59:27;24;24;
61592;PMS5003;70568;51.378;-1.342;2023-06-19T05:01:53;24;24;
61592;PMS5003;70568;51.378;-1.342;2023-06-19T05:04:21;30;29;
61592;PMS5003;70568;51.378;-1.342;2023-06-19T05:06:48;25;23;
61592;PMS5003;70568;51.378;-1.342;2023-06-19T05:09:15;27;27;
61592;PMS5003;70568;51.378;-1.342;2023-06-19T05:11:42;31;30;
61592;PMS5003;70568;51.378;-1.342;2023-06-19T05:14:08;28;25;
61592;PMS5003;70568;51.378;-1.342;2023-06-19T05:16:35;33;31;
61592;PMS5003;70568;51.378;-1.342;2023-06-19T05:19:02;31;30;
61592;PMS5003;70568;51.378;-1.342;2023-06-19T05:21:29;31;30;
61592;PMS5003;70568;51.378;-1.342;2023-06-19T05:23:56;27;26;
61592;PMS5003;70568;51.378;-1.342;2023-06-19T05:26:23;31;30;
61592;PMS5003;70568;51.378;-1.342;2023-06-19T05:28:50;29;29;
61592;PMS5003;70568;51.378;-1.342;2023-06-19T05:31:16;27;24;
61592;PMS5003;70568;51.378;-1.342;2023-06-19T05:33:43;30;30;
61592;PMS5003;70568;51.378;-1.342;2023-06-19T05:36:11;33;32;
61592;PMS5003;70568;51.378;-1.342;2023-06-19T05:38:38;29;28;
61592;PMS5003;70568;51.378;-1.342;2023-06-19T05:41:05;30;28;
61592;PMS5003;70568;51.378;-1.342;2023-06-19T05:43:32;28;27;
61592;PMS5003;70568;51.378;-1.342;2023-06-19T05:45:59;33;33;
61592;PMS5003;70568;51.378;-1.342;2023-06-19T05:48:25;34;33;
61592;PMS5003;70568;51.378;-1.342;2023-06-19T05:50:52;29;29;
61592;PMS5003;70568;51.378;-1.342;2023-06-19T05:53:20;29;29;
61592;PMS5003;70568;51.378;-1.342;2023-06-19T05:55:48;36;35;
61592;PMS5003;70568;51.378;-1.342;2023-06-19T05:58:14;26;26;
61592;PMS5003;70568;51.378;-1.342;2023-06-19T06:00:41;34;34;
61592;PMS5003;70568;51.378;-1.342;2023-06-19T06:03:08;35;33;
61592;PMS5003;70568;51.378;-1.342;2023-06-19T06:05:35;35;33;
61592;PMS5003;70568;51.378;-1.342;2023-06-19T06:08:02;33;31;
61592;PMS5003;70568;51.378;-1.342;2023-06-19T06:10:29;32;30;
61592;PMS5003;70568;51.378;-1.342;2023-06-19T06:12:55;27;26;
61592;PMS5003;70568;51.378;-1.342;2023-06-19T06:15:22;29;28;
61592;PMS5003;70568;51.378;-1.342;2023-06-19T06:17:49;32;32;
61592;PMS5003;70568;51.378;-1.342;2023-06-19T06:20:15;35;33;
61592;PMS5003;70568;51.378;-1.342;2023-06-19T06:22:42;32;31;
61592;PMS5003;70568;51.378;-1.342;2023-06-19T06:25:09;31;30;
61592;PMS5003;70568;51.378;-1.342;2023-06-19T06:27:37;32;30;
61592;PMS5003;70568;51.378;-1.342;2023-06-19T06:30:04;35;33;
61592;PMS5003;70568;51.378;-1.342;2023-06-19T06:32:31;26;25;
61592;PMS5003;70568;51.378;-1.342;2023-06-19T06:34:58;32;32;
61592;PMS5003;70568;51.378;-1.342;2023-06-19T06:37:25;25;24;
61592;PMS5003;70568;51.378;-1.342;2023-06-19T06:39:52;32;31;
61592;PMS5003;70568;51.378;-1.342;2023-06-19T06:42:19;30;29;
61592;PMS5003;70568;51.378;-1.342;2023-06-19T06:44:46;27;25;
61592;PMS5003;70568;51.378;-1.342;2023-06-19T06:47:13;25;23;
61592;PMS5003;70568;51.378;-1.342;2023-06-19T06:49:40;23;23;
61592;PMS5003;70568;51.378;-1.342;2023-06-19T06:52:07;22;22;
61592;PMS5003;70568;51.378;-1.342;2023-06-19T06:54:34;25;25;
61592;PMS5003;70568;51.378;-1.342;2023-06-19T06:57:00;34;32;
61592;PMS5003;70568;51.378;-1.342;2023-06-19T06:59:28;23;18;
61592;PMS5003;70568;51.378;-1.342;2023-06-19T07:01:55;20;19;
61592;PMS5003;70568;51.378;-1.342;2023-06-19T07:04:23;21;21;
61592;PMS5003;70568;51.378;-1.342;2023-06-19T07:06:49;18;18;
61592;PMS5003;70568;51.378;-1.342;2023-06-19T07:09:16;17;16;
61592;PMS5003;70568;51.378;-1.342;2023-06-19T07:11:43;20;20;
61592;PMS5003;70568;51.378;-1.342;2023-06-19T07:14:10;19;19;
61592;PMS5003;70568;51.378;-1.342;2023-06-19T07:16:37;15;15;
61592;PMS5003;70568;51.378;-1.342;2023-06-19T07:19:04;20;18;
61592;PMS5003;70568;51.378;-1.342;2023-06-19T07:21:31;20;20;
61592;PMS5003;70568;51.378;-1.342;2023-06-19T07:23:57;22;19;
61592;PMS5003;70568;51.378;-1.342;2023-06-19T07:26:25;17;16;
61592;PMS5003;70568;51.378;-1.342;2023-06-19T07:28:53;20;19;
61592;PMS5003;70568;51.378;-1.342;2023-06-19T07:31:20;18;17;
61592;PMS5003;70568;51.378;-1.342;2023-06-19T07:33:47;18;17;
61592;PMS5003;70568;51.378;-1.342;2023-06-19T07:36:14;16;15;
61592;PMS5003;70568;51.378;-1.342;2023-06-19T07:38:41;16;15;
61592;PMS5003;70568;51.378;-1.342;2023-06-19T07:41:09;16;15;
61592;PMS5003;70568;51.378;-1.342;2023-06-19T07:43:37;17;17;
61592;PMS5003;70568;51.378;-1.342;2023-06-19T07:46:04;19;17;
61592;PMS5003;70568;51.378;-1.342;2023-06-19T07:48:31;20;18;
61592;PMS5003;70568;51.378;-1.342;2023-06-19T07:50:58;17;16;
61592;PMS5003;70568;51.378;-1.342;2023-06-19T07:53:26;21;20;
61592;PMS5003;70568;51.378;-1.342;2023-06-19T07:55:53;16;15;
61592;PMS5003;70568;51.378;-1.342;2023-06-19T07:58:20;16;15;
61592;PMS5003;70568;51.378;-1.342;2023-06-19T08:00:48;18;17;
61592;PMS5003;70568;51.378;-1.342;2023-06-19T08:03:14;15;15;
61592;PMS5003;70568;51.378;-1.342;2023-06-19T08:05:41;16;15;
61592;PMS5003;70568;51.378;-1.342;2023-06-19T08:08:07;18;16;
61592;PMS5003;70568;51.378;-1.342;2023-06-19T08:10:33;16;16;
61592;PMS5003;70568;51.378;-1.342;2023-06-19T08:13:00;20;20;
61592;PMS5003;70568;51.378;-1.342;2023-06-19T08:15:27;14;13;
61592;PMS5003;70568;51.378;-1.342;2023-06-19T08:17:54;21;19;
61592;PMS5003;70568;51.378;-1.342;2023-06-19T08:20:21;17;15;
61592;PMS5003;70568;51.378;-1.342;2023-06-19T08:22:48;17;15;
61592;PMS5003;70568;51.378;-1.342;2023-06-19T08:25:15;19;18;
61592;PMS5003;70568;51.378;-1.342;2023-06-19T08:27:41;18;16;
61592;PMS5003;70568;51.378;-1.342;2023-06-19T08:30:08;15;13;
61592;PMS5003;70568;51.378;-1.342;2023-06-19T08:32:35;13;13;
61592;PMS5003;70568;51.378;-1.342;2023-06-19T08:35:02;13;12;
61592;PMS5003;70568;51.378;-1.342;2023-06-19T08:37:29;16;15;
61592;PMS5003;70568;51.378;-1.342;2023-06-19T08:39:55;13;13;
61592;PMS5003;70568;51.378;-1.342;2023-06-19T08:42:22;16;15;
61592;PMS5003;70568;51.378;-1.342;2023-06-19T08:44:49;20;19;
61592;PMS5003;70568;51.378;-1.342;2023-06-19T08:47:16;17;16;
61592;PMS5003;70568;51.378;-1.342;2023-06-19T08:49:43;16;16;
61592;PMS5003;70568;51.378;-1.342;2023-06-19T08:52:10;12;12;
61592;PMS5003;70568;51.378;-1.342;2023-06-19T08:54:37;13;13;
61592;PMS5003;70568;51.378;-1.342;2023-06-19T08:57:03;14;13;
61592;PMS5003;70568;51.378;-1.342;2023-06-19T08:59:30;17;15;
61592;PMS5003;70568;51.378;-1.342;2023-06-19T09:01:57;16;15;
61592;PMS5003;70568;51.378;-1.342;2023-06-19T09:04:24;14;12;
61592;PMS5003;70568;51.378;-1.342;2023-06-19T09:06:52;17;17;
61592;PMS5003;70568;51.378;-1.342;2023-06-19T09:09:21;11;11;
61592;PMS5003;70568;51.378;-1.342;2023-06-19T09:11:57;14;14;
61592;PMS5003;70568;51.378;-1.342;2023-06-19T09:14:33;13;13;
61592;PMS5003;70568;51.378;-1.342;2023-06-19T09:17:01;14;12;
61592;PMS5003;70568;51.378;-1.342;2023-06-19T09:19:28;12;12;
61592;PMS5003;70568;51.378;-1.342;2023-06-19T09:21:59;15;13;
61592;PMS5003;70568;51.378;-1.342;2023-06-19T09:24:32;9;9;
61592;PMS5003;70568;51.378;-1.342;2023-06-19T09:27:05;10;10;
61592;PMS5003;70568;51.378;-1.342;2023-06-19T09:29:35;11;11;
61592;PMS5003;70568;51.378;-1.342;2023-06-19T09:32:13;14;14;
61592;PMS5003;70568;51.378;-1.342;2023-06-19T09:34:40;10;10;
61592;PMS5003;70568;51.378;-1.342;2023-06-19T09:37:08;12;11;
61592;PMS5003;70568;51.378;-1.342;2023-06-19T09:39:35;9;9;
61592;PMS5003;70568;51.378;-1.342;2023-06-19T09:42:03;13;13;
61592;PMS5003;70568;51.378;-1.342;2023-06-19T09:44:40;11;11;
61592;PMS5003;70568;51.378;-1.342;2023-06-19T09:47:12;11;11;
61592;PMS5003;70568;51.378;-1.342;2023-06-19T09:49:41;13;13;
61592;PMS5003;70568;51.378;-1.342;2023-06-19T09:52:12;12;11;
61592;PMS5003;70568;51.378;-1.342;2023-06-19T09:54:39;13;13;
61592;PMS5003;70568;51.378;-1.342;2023-06-19T09:57:07;16;15;
61592;PMS5003;70568;51.378;-1.342;2023-06-19T09:59:35;9;9;
61592;PMS5003;70568;51.378;-1.342;2023-06-19T10:02:03;12;12;
61592;PMS5003;70568;51.378;-1.342;2023-06-19T10:04:30;10;10;
61592;PMS5003;70568;51.378;-1.342;2023-06-19T10:07:14;12;12;
61592;PMS5003;70568;51.378;-1.342;2023-06-19T10:09:54;11;10;
61592;PMS5003;70568;51.378;-1.342;2023-06-19T10:12:22;13;13;
61592;PMS5003;70568;51.378;-1.342;2023-06-19T10:15:06;8;8;
61592;PMS5003;70568;51.378;-1.342;2023-06-19T10:17:35;11;11;
61592;PMS5003;70568;51.378;-1.342;2023-06-19T10:20:02;10;10;
61592;PMS5003;70568;51.378;-1.342;2023-06-19T10:22:30;7;7;
61592;PMS5003;70568;51.378;-1.342;2023-06-19T10:24:57;10;9;
61592;PMS5003;70568;51.378;-1.342;2023-06-19T10:27:24;11;11;
61592;PMS5003;70568;51.378;-1.342;2023-06-19T10:29:52;9;9;
61592;PMS5003;70568;51.378;-1.342;2023-06-19T10:32:20;10;9;
61592;PMS5003;70568;51.378;-1.342;2023-06-19T10:34:48;11;11;
61592;PMS5003;70568;51.378;-1.342;2023-06-19T10:37:15;10;9;
61592;PMS5003;70568;51.378;-1.342;2023-06-19T10:39:41;12;10;
61592;PMS5003;70568;51.378;-1.342;2023-06-19T10:42:09;10;10;
61592;PMS5003;70568;51.378;-1.342;2023-06-19T10:44:36;10;9;
61592;PMS5003;70568;51.378;-1.342;2023-06-19T10:47:03;8;8;
61592;PMS5003;70568;51.378;-1.342;2023-06-19T10:49:31;7;7;
61592;PMS5003;70568;51.378;-1.342;2023-06-19T10:51:59;10;8;
61592;PMS5003;70568;51.378;-1.342;2023-06-19T10:54:27;9;9;
61592;PMS5003;70568;51.378;-1.342;2023-06-19T10:56:54;9;8;
61592;PMS5003;70568;51.378;-1.342;2023-06-19T10:59:21;7;7;
61592;PMS5003;70568;51.378;-1.342;2023-06-19T11:01:49;8;8;
61592;PMS5003;70568;51.378;-1.342;2023-06-19T11:04:16;7;7;
61592;PMS5003;70568;51.378;-1.342;2023-06-19T11:06:43;10;8;
61592;PMS5003;70568;51.378;-1.342;2023-06-19T11:09:10;7;7;
61592;PMS5003;70568;51.378;-1.342;2023-06-19T11:11:39;7;6;
61592;PMS5003;70568;51.378;-1.342;2023-06-19T11:14:08;8;7;
61592;PMS5003;70568;51.378;-1.342;2023-06-19T11:16:37;7;6;
61592;PMS5003;70568;51.378;-1.342;2023-06-19T11:19:05;7;7;
61592;PMS5003;70568;51.378;-1.342;2023-06-19T11:21:34;8;7;
61592;PMS5003;70568;51.378;-1.342;2023-06-19T11:24:02;13;9;
61592;PMS5003;70568;51.378;-1.342;2023-06-19T11:26:29;6;5;
61592;PMS5003;70568;51.378;-1.342;2023-06-19T11:29:00;8;8;
61592;PMS5003;70568;51.378;-1.342;2023-06-19T11:31:26;9;7;
61592;PMS5003;70568;51.378;-1.342;2023-06-19T11:33:57;7;7;
61592;PMS5003;70568;51.378;-1.342;2023-06-19T11:36:25;6;6;
61592;PMS5003;70568;51.378;-1.342;2023-06-19T11:38:52;7;7;
61592;PMS5003;70568;51.378;-1.342;2023-06-19T11:41:27;6;6;
61592;PMS5003;70568;51.378;-1.342;2023-06-19T11:43:58;5;5;
61592;PMS5003;70568;51.378;-1.342;2023-06-19T11:46:28;7;7;
61592;PMS5003;70568;51.378;-1.342;2023-06-19T11:48:55;6;5;
61592;PMS5003;70568;51.378;-1.342;2023-06-19T11:51:33;8;7;
61592;PMS5003;70568;51.378;-1.342;2023-06-19T11:53:59;9;9;
61592;PMS5003;70568;51.378;-1.342;2023-06-19T11:56:25;9;8;
61592;PMS5003;70568;51.378;-1.342;2023-06-19T11:58:52;7;7;
61592;PMS5003;70568;51.378;-1.342;2023-06-19T12:01:18;9;9;
61592;PMS5003;70568;51.378;-1.342;2023-06-19T12:03:46;11;8;
61592;PMS5003;70568;51.378;-1.342;2023-06-19T12:06:13;9;9;
61592;PMS5003;70568;51.378;-1.342;2023-06-19T12:08:40;7;7;
61592;PMS5003;70568;51.378;-1.342;2023-06-19T12:11:06;6;6;
61592;PMS5003;70568;51.378;-1.342;2023-06-19T12:13:34;7;7;
61592;PMS5003;70568;51.378;-1.342;2023-06-19T12:16:01;6;6;
61592;PMS5003;70568;51.378;-1.342;2023-06-19T12:18:28;8;8;
61592;PMS5003;70568;51.378;-1.342;2023-06-19T12:20:55;9;9;
61592;PMS5003;70568;51.378;-1.342;2023-06-19T12:23:22;8;8;
61592;PMS5003;70568;51.378;-1.342;2023-06-19T12:25:48;6;6;
61592;PMS5003;70568;51.378;-1.342;2023-06-19T12:28:15;7;6;
61592;PMS5003;70568;51.378;-1.342;2023-06-19T12:30:41;6;6;
61592;PMS5003;70568;51.378;-1.342;2023-06-19T12:33:08;4;4;
61592;PMS5003;70568;51.378;-1.342;2023-06-19T12:35:34;6;5;
61592;PMS5003;70568;51.378;-1.342;2023-06-19T12:38:01;8;8;
61592;PMS5003;70568;51.378;-1.342;2023-06-19T12:40:29;5;5;
61592;PMS5003;70568;51.378;-1.342;2023-06-19T12:42:55;8;7;
61592;PMS5003;70568;51.378;-1.342;2023-06-19T12:45:22;6;6;
61592;PMS5003;70568;51.378;-1.342;2023-06-19T12:47:49;5;5;
61592;PMS5003;70568;51.378;-1.342;2023-06-19T12:50:15;6;6;
61592;PMS5003;70568;51.378;-1.342;2023-06-19T12:52:42;7;7;
61592;PMS5003;70568;51.378;-1.342;2023-06-19T12:55:09;7;7;
61592;PMS5003;70568;51.378;-1.342;2023-06-19T12:57:37;5;5;
61592;PMS5003;70568;51.378;-1.342;2023-06-19T13:00:04;6;5;
61592;PMS5003;70568;51.378;-1.342;2023-06-19T13:02:32;6;6;
61592;PMS5003;70568;51.378;-1.342;2023-06-19T13:04:59;5;5;
61592;PMS5003;70568;51.378;-1.342;2023-06-19T13:07:25;7;7;
61592;PMS5003;70568;51.378;-1.342;2023-06-19T13:09:52;7;7;
61592;PMS5003;70568;51.378;-1.342;2023-06-19T13:12:18;6;6;
61592;PMS5003;70568;51.378;-1.342;2023-06-19T13:14:45;5;5;
61592;PMS5003;70568;51.378;-1.342;2023-06-19T13:17:12;5;5;
61592;PMS5003;70568;51.378;-1.342;2023-06-19T13:19:39;8;6;
61592;PMS5003;70568;51.378;-1.342;2023-06-19T13:22:07;7;7;
61592;PMS5003;70568;51.378;-1.342;2023-06-19T13:24:34;10;8;
61592;PMS5003;70568;51.378;-1.342;2023-06-19T13:27:00;5;5;
61592;PMS5003;70568;51.378;-1.342;2023-06-19T13:29:27;5;5;
61592;PMS5003;70568;51.378;-1.342;2023-06-19T13:31:54;6;5;
61592;PMS5003;70568;51.378;-1.342;2023-06-19T13:34:21;4;4;
61592;PMS5003;70568;51.378;-1.342;2023-06-19T13:36:48;6;5;
61592;PMS5003;70568;51.378;-1.342;2023-06-19T13:39:15;4;4;
61592;PMS5003;70568;51.378;-1.342;2023-06-19T13:41:43;5;5;
61592;PMS5003;70568;51.378;-1.342;2023-06-19T13:44:09;6;6;
61592;PMS5003;70568;51.378;-1.342;2023-06-19T13:46:36;4;4;
61592;PMS5003;70568;51.378;-1.342;2023-06-19T13:49:04;4;3;
61592;PMS5003;70568;51.378;-1.342;2023-06-19T13:51:31;5;5;
61592;PMS5003;70568;51.378;-1.342;2023-06-19T13:53:57;6;5;
61592;PMS5003;70568;51.378;-1.342;2023-06-19T13:56:24;5;5;
61592;PMS5003;70568;51.378;-1.342;2023-06-19T13:58:50;4;4;
61592;PMS5003;70568;51.378;-1.342;2023-06-19T14:01:17;6;5;
61592;PMS5003;70568;51.378;-1.342;2023-06-19T14:03:45;6;5;
61592;PMS5003;70568;51.378;-1.342;2023-06-19T14:06:11;5;5;
61592;PMS5003;70568;51.378;-1.342;2023-06-19T14:08:37;4;4;
61592;PMS5003;70568;51.378;-1.342;2023-06-19T14:11:05;5;4;
61592;PMS5003;70568;51.378;-1.342;2023-06-19T14:13:32;5;5;
61592;PMS5003;70568;51.378;-1.342;2023-06-19T14:15:58;5;5;
61592;PMS5003;70568;51.378;-1.342;2023-06-19T14:18:25;7;7;
61592;PMS5003;70568;51.378;-1.342;2023-06-19T14:20:51;6;6;
61592;PMS5003;70568;51.378;-1.342;2023-06-19T14:23:18;5;5;
61592;PMS5003;70568;51.378;-1.342;2023-06-19T14:25:45;6;5;
61592;PMS5003;70568;51.378;-1.342;2023-06-19T14:28:12;5;5;
61592;PMS5003;70568;51.378;-1.342;2023-06-19T14:30:39;5;5;
61592;PMS5003;70568;51.378;-1.342;2023-06-19T14:33:05;6;6;
61592;PMS5003;70568;51.378;-1.342;2023-06-19T14:35:32;6;5;
61592;PMS5003;70568;51.378;-1.342;2023-06-19T14:37:58;8;6;
61592;PMS5003;70568;51.378;-1.342;2023-06-19T14:40:25;6;6;
61592;PMS5003;70568;51.378;-1.342;2023-06-19T14:42:52;6;6;
61592;PMS5003;70568;51.378;-1.342;2023-06-19T14:45:19;9;9;
61592;PMS5003;70568;51.378;-1.342;2023-06-19T14:47:46;7;7;
61592;PMS5003;70568;51.378;-1.342;2023-06-19T14:50:13;6;5;
61592;PMS5003;70568;51.378;-1.342;2023-06-19T14:52:39;7;6;
61592;PMS5003;70568;51.378;-1.342;2023-06-19T14:55:06;6;6;
61592;PMS5003;70568;51.378;-1.342;2023-06-19T14:57:33;8;8;
61592;PMS5003;70568;51.378;-1.342;2023-06-19T15:00:00;4;4;
61592;PMS5003;70568;51.378;-1.342;2023-06-19T15:02:26;5;4;
61592;PMS5003;70568;51.378;-1.342;2023-06-19T15:04:53;6;6;
61592;PMS5003;70568;51.378;-1.342;2023-06-19T15:07:19;6;6;
61592;PMS5003;70568;51.378;-1.342;2023-06-19T15:09:46;8;7;
61592;PMS5003;70568;51.378;-1.342;2023-06-19T15:12:13;5;5;
61592;PMS5003;70568;51.378;-1.342;2023-06-19T15:14:40;7;6;
61592;PMS5003;70568;51.378;-1.342;2023-06-19T15:17:07;4;4;
61592;PMS5003;70568;51.378;-1.342;2023-06-19T15:19:34;5;5;
61592;PMS5003;70568;51.378;-1.342;2023-06-19T15:22:00;6;6;
61592;PMS5003;70568;51.378;-1.342;2023-06-19T15:24:26;5;5;
61592;PMS5003;70568;51.378;-1.342;2023-06-19T15:26:53;10;9;
61592;PMS5003;70568;51.378;-1.342;2023-06-19T15:29:20;6;6;
61592;PMS5003;70568;51.378;-1.342;2023-06-19T15:31:48;7;7;
61592;PMS5003;70568;51.378;-1.342;2023-06-19T15:34:15;6;6;
61592;PMS5003;70568;51.378;-1.342;2023-06-19T15:36:42;6;6;
61592;PMS5003;70568;51.378;-1.342;2023-06-19T15:39:09;4;4;
61592;PMS5003;70568;51.378;-1.342;2023-06-19T15:41:36;7;6;
61592;PMS5003;70568;51.378;-1.342;2023-06-19T15:44:03;19;18;
61592;PMS5003;70568;51.378;-1.342;2023-06-19T15:46:30;8;8;
61592;PMS5003;70568;51.378;-1.342;2023-06-19T15:48:57;5;5;
61592;PMS5003;70568;51.378;-1.342;2023-06-19T15:51:24;5;5;
61592;PMS5003;70568;51.378;-1.342;2023-06-19T15:53:51;4;4;
61592;PMS5003;70568;51.378;-1.342;2023-06-19T15:56:19;6;6;
61592;PMS5003;70568;51.378;-1.342;2023-06-19T15:58:46;8;7;
61592;PMS5003;70568;51.378;-1.342;2023-06-19T16:01:12;4;4;
61592;PMS5003;70568;51.378;-1.342;2023-06-19T16:03:38;5;5;
61592;PMS5003;70568;51.378;-1.342;2023-06-19T16:06:06;5;5;
61592;PMS5003;70568;51.378;-1.342;2023-06-19T16:08:32;5;5;
61592;PMS5003;70568;51.378;-1.342;2023-06-19T16:10:58;5;5;
61592;PMS5003;70568;51.378;-1.342;2023-06-19T16:13:26;8;7;
61592;PMS5003;70568;51.378;-1.342;2023-06-19T16:15:52;7;6;